METAR Formatted Surface Weather Observation
Issued by NWS Charleston, WV

Home | Current Version | Previous Version | Text Only | Print | Product List | Glossary On
Versions: 1 2
000
SAUS41 KRLX 290600 COR
MTRCRW
METAR KCRW 290554Z 00000KT 6SM BR FEW002 SCT100 23/22 A2999 RMK AO2
SLP143 VLY FG T02280217 10300 20228 58002



USA.gov is the U.S. government's official web portal to all federal, state and local government web resources and services.